sensor_id;sensor_type;location;lat;lon;timestamp;P1;durP1;ratioP1;P2;durP2;ratioP2
65597;SDS011;52267;51.984;20.956;2023-04-15T00:00:10;11.40;;;7.70;;
65597;SDS011;52267;51.984;20.956;2023-04-15T00:02:58;9.60;;;6.90;;
65597;SDS011;52267;51.984;20.956;2023-04-15T00:05:25;9.20;;;6.10;;
65597;SDS011;52267;51.984;20.956;2023-04-15T00:07:52;10.20;;;6.50;;
65597;SDS011;52267;51.984;20.956;2023-04-15T00:10:19;9.50;;;6.80;;
65597;SDS011;52267;51.984;20.956;2023-04-15T00:12:46;11.00;;;6.70;;
65597;SDS011;52267;51.984;20.956;2023-04-15T00:15:13;11.80;;;7.40;;
65597;SDS011;52267;51.984;20.956;2023-04-15T00:17:40;8.80;;;6.00;;
65597;SDS011;52267;51.984;20.956;2023-04-15T00:20:08;9.90;;;5.80;;
65597;SDS011;52267;51.984;20.956;2023-04-15T00:22:36;9.90;;;6.80;;
65597;SDS011;52267;51.984;20.956;2023-04-15T00:25:03;9.80;;;6.00;;
65597;SDS011;52267;51.984;20.956;2023-04-15T00:27:30;7.50;;;5.10;;
65597;SDS011;52267;51.984;20.956;2023-04-15T00:29:57;10.80;;;6.80;;
65597;SDS011;52267;51.984;20.956;2023-04-15T00:32:24;10.10;;;6.20;;
65597;SDS011;52267;51.984;20.956;2023-04-15T00:34:51;10.70;;;6.50;;
65597;SDS011;52267;51.984;20.956;2023-04-15T00:37:18;10.70;;;6.90;;
65597;SDS011;52267;51.984;20.956;2023-04-15T00:39:45;12.90;;;7.40;;
65597;SDS011;52267;51.984;20.956;2023-04-15T00:42:13;9.80;;;7.20;;
65597;SDS011;52267;51.984;20.956;2023-04-15T00:44:40;9.20;;;6.20;;
65597;SDS011;52267;51.984;20.956;2023-04-15T00:47:08;10.10;;;6.40;;
65597;SDS011;52267;51.984;20.956;2023-04-15T00:49:35;9.70;;;6.70;;
65597;SDS011;52267;51.984;20.956;2023-04-15T00:52:02;15.80;;;9.70;;
65597;SDS011;52267;51.984;20.956;2023-04-15T00:54:30;10.30;;;6.70;;
65597;SDS011;52267;51.984;20.956;2023-04-15T00:56:57;9.90;;;6.90;;
65597;SDS011;52267;51.984;20.956;2023-04-15T00:59:25;10.50;;;7.50;;
65597;SDS011;52267;51.984;20.956;2023-04-15T01:01:52;11.00;;;7.10;;
65597;SDS011;52267;51.984;20.956;2023-04-15T01:04:19;13.40;;;8.40;;
65597;SDS011;52267;51.984;20.956;2023-04-15T01:06:47;15.50;;;8.90;;
65597;SDS011;52267;51.984;20.956;2023-04-15T01:09:14;10.40;;;6.30;;
65597;SDS011;52267;51.984;20.956;2023-04-15T01:11:41;12.70;;;8.90;;
65597;SDS011;52267;51.984;20.956;2023-04-15T01:14:08;13.30;;;9.10;;
65597;SDS011;52267;51.984;20.956;2023-04-15T01:16:37;13.30;;;7.40;;
65597;SDS011;52267;51.984;20.956;2023-04-15T01:19:08;10.10;;;7.10;;
65597;SDS011;52267;51.984;20.956;2023-04-15T01:21:39;13.10;;;8.40;;
65597;SDS011;52267;51.984;20.956;2023-04-15T01:24:09;15.00;;;9.30;;
65597;SDS011;52267;51.984;20.956;2023-04-15T01:26:39;8.90;;;6.50;;
65597;SDS011;52267;51.984;20.956;2023-04-15T01:29:07;9.50;;;6.60;;
65597;SDS011;52267;51.984;20.956;2023-04-15T01:31:34;13.40;;;9.60;;
65597;SDS011;52267;51.984;20.956;2023-04-15T01:34:01;10.80;;;6.30;;
65597;SDS011;52267;51.984;20.956;2023-04-15T01:36:29;11.10;;;6.30;;
65597;SDS011;52267;51.984;20.956;2023-04-15T01:38:56;14.80;;;9.60;;
65597;SDS011;52267;51.984;20.956;2023-04-15T01:41:27;13.80;;;8.70;;
65597;SDS011;52267;51.984;20.956;2023-04-15T01:43:54;14.10;;;9.70;;
65597;SDS011;52267;51.984;20.956;2023-04-15T01:46:21;13.90;;;9.10;;
65597;SDS011;52267;51.984;20.956;2023-04-15T01:48:48;9.20;;;6.60;;
65597;SDS011;52267;51.984;20.956;2023-04-15T01:51:16;13.70;;;8.80;;
65597;SDS011;52267;51.984;20.956;2023-04-15T01:53:43;11.80;;;7.60;;
65597;SDS011;52267;51.984;20.956;2023-04-15T01:56:10;14.70;;;8.40;;
65597;SDS011;52267;51.984;20.956;2023-04-15T01:58:37;12.10;;;8.20;;
65597;SDS011;52267;51.984;20.956;2023-04-15T02:01:05;9.90;;;6.00;;
65597;SDS011;52267;51.984;20.956;2023-04-15T02:03:33;11.60;;;8.50;;
65597;SDS011;52267;51.984;20.956;2023-04-15T02:06:00;17.20;;;11.40;;
65597;SDS011;52267;51.984;20.956;2023-04-15T02:08:28;14.90;;;8.90;;
65597;SDS011;52267;51.984;20.956;2023-04-15T02:10:55;11.20;;;7.10;;
65597;SDS011;52267;51.984;20.956;2023-04-15T02:13:22;13.10;;;9.00;;
65597;SDS011;52267;51.984;20.956;2023-04-15T02:15:49;11.30;;;8.00;;
65597;SDS011;52267;51.984;20.956;2023-04-15T02:18:18;11.90;;;7.80;;
65597;SDS011;52267;51.984;20.956;2023-04-15T02:20:45;14.10;;;10.00;;
65597;SDS011;52267;51.984;20.956;2023-04-15T02:23:12;16.90;;;11.40;;
65597;SDS011;52267;51.984;20.956;2023-04-15T02:25:39;12.60;;;8.00;;
65597;SDS011;52267;51.984;20.956;2023-04-15T02:28:06;9.30;;;7.00;;
65597;SDS011;52267;51.984;20.956;2023-04-15T02:30:33;11.90;;;8.20;;
65597;SDS011;52267;51.984;20.956;2023-04-15T02:33:01;16.50;;;11.10;;
65597;SDS011;52267;51.984;20.956;2023-04-15T02:35:28;14.20;;;9.20;;
65597;SDS011;52267;51.984;20.956;2023-04-15T02:37:55;16.50;;;9.80;;
65597;SDS011;52267;51.984;20.956;2023-04-15T02:40:23;15.40;;;10.20;;
65597;SDS011;52267;51.984;20.956;2023-04-15T02:42:50;11.10;;;6.50;;
65597;SDS011;52267;51.984;20.956;2023-04-15T02:45:16;12.10;;;8.50;;
65597;SDS011;52267;51.984;20.956;2023-04-15T02:47:45;13.10;;;9.00;;
65597;SDS011;52267;51.984;20.956;2023-04-15T02:50:13;15.60;;;10.20;;
65597;SDS011;52267;51.984;20.956;2023-04-15T02:52:41;12.30;;;7.50;;
65597;SDS011;52267;51.984;20.956;2023-04-15T02:55:09;17.20;;;11.40;;
65597;SDS011;52267;51.984;20.956;2023-04-15T02:57:36;15.10;;;9.10;;
65597;SDS011;52267;51.984;20.956;2023-04-15T03:00:05;15.90;;;10.80;;
65597;SDS011;52267;51.984;20.956;2023-04-15T03:02:36;17.80;;;11.70;;
65597;SDS011;52267;51.984;20.956;2023-04-15T03:05:04;16.70;;;12.10;;
65597;SDS011;52267;51.984;20.956;2023-04-15T03:07:32;16.70;;;10.30;;
65597;SDS011;52267;51.984;20.956;2023-04-15T03:09:59;16.00;;;11.00;;
65597;SDS011;52267;51.984;20.956;2023-04-15T03:12:26;16.90;;;9.90;;
65597;SDS011;52267;51.984;20.956;2023-04-15T03:14:54;13.10;;;6.90;;
65597;SDS011;52267;51.984;20.956;2023-04-15T03:17:21;16.60;;;11.70;;
65597;SDS011;52267;51.984;20.956;2023-04-15T03:19:48;15.30;;;9.30;;
65597;SDS011;52267;51.984;20.956;2023-04-15T03:22:15;18.40;;;11.60;;
65597;SDS011;52267;51.984;20.956;2023-04-15T03:24:42;14.50;;;10.40;;
65597;SDS011;52267;51.984;20.956;2023-04-15T03:27:09;15.20;;;10.50;;
65597;SDS011;52267;51.984;20.956;2023-04-15T03:29:36;14.70;;;10.00;;
65597;SDS011;52267;51.984;20.956;2023-04-15T03:32:03;11.10;;;7.20;;
65597;SDS011;52267;51.984;20.956;2023-04-15T03:34:30;17.10;;;11.20;;
65597;SDS011;52267;51.984;20.956;2023-04-15T03:36:57;13.50;;;8.00;;
65597;SDS011;52267;51.984;20.956;2023-04-15T03:39:24;17.30;;;10.50;;
65597;SDS011;52267;51.984;20.956;2023-04-15T03:41:51;15.10;;;9.10;;
65597;SDS011;52267;51.984;20.956;2023-04-15T03:44:18;14.00;;;9.90;;
65597;SDS011;52267;51.984;20.956;2023-04-15T03:46:45;10.90;;;7.20;;
65597;SDS011;52267;51.984;20.956;2023-04-15T03:49:13;14.40;;;9.00;;
65597;SDS011;52267;51.984;20.956;2023-04-15T03:51:40;11.40;;;8.00;;
65597;SDS011;52267;51.984;20.956;2023-04-15T03:54:07;10.60;;;6.70;;
65597;SDS011;52267;51.984;20.956;2023-04-15T03:56:34;14.10;;;9.70;;
65597;SDS011;52267;51.984;20.956;2023-04-15T03:59:00;17.40;;;11.50;;
65597;SDS011;52267;51.984;20.956;2023-04-15T04:01:27;9.70;;;5.80;;
65597;SDS011;52267;51.984;20.956;2023-04-15T04:03:54;13.70;;;9.70;;
65597;SDS011;52267;51.984;20.956;2023-04-15T04:06:24;13.20;;;9.80;;
65597;SDS011;52267;51.984;20.956;2023-04-15T04:08:51;16.60;;;10.20;;
65597;SDS011;52267;51.984;20.956;2023-04-15T04:11:18;12.30;;;8.90;;
65597;SDS011;52267;51.984;20.956;2023-04-15T04:13:46;13.00;;;8.90;;
65597;SDS011;52267;51.984;20.956;2023-04-15T04:16:13;11.10;;;7.30;;
65597;SDS011;52267;51.984;20.956;2023-04-15T04:18:40;17.40;;;11.10;;
65597;SDS011;52267;51.984;20.956;2023-04-15T04:21:08;12.80;;;9.00;;
65597;SDS011;52267;51.984;20.956;2023-04-15T04:23:35;12.50;;;8.70;;
65597;SDS011;52267;51.984;20.956;2023-04-15T04:26:02;9.80;;;6.20;;
65597;SDS011;52267;51.984;20.956;2023-04-15T04:28:29;15.00;;;10.30;;
65597;SDS011;52267;51.984;20.956;2023-04-15T04:30:57;12.70;;;8.90;;
65597;SDS011;52267;51.984;20.956;2023-04-15T04:33:24;9.50;;;6.60;;
65597;SDS011;52267;51.984;20.956;2023-04-15T04:35:51;14.40;;;9.90;;
65597;SDS011;52267;51.984;20.956;2023-04-15T04:38:18;10.70;;;7.30;;
65597;SDS011;52267;51.984;20.956;2023-04-15T04:40:45;12.50;;;8.70;;
65597;SDS011;52267;51.984;20.956;2023-04-15T04:43:12;11.30;;;7.20;;
65597;SDS011;52267;51.984;20.956;2023-04-15T04:45:40;13.30;;;8.70;;
65597;SDS011;52267;51.984;20.956;2023-04-15T04:48:07;17.30;;;10.80;;
65597;SDS011;52267;51.984;20.956;2023-04-15T04:50:36;16.50;;;10.70;;
65597;SDS011;52267;51.984;20.956;2023-04-15T04:53:03;15.70;;;9.60;;
65597;SDS011;52267;51.984;20.956;2023-04-15T04:55:29;14.80;;;10.20;;
65597;SDS011;52267;51.984;20.956;2023-04-15T04:57:57;12.70;;;8.60;;
65597;SDS011;52267;51.984;20.956;2023-04-15T05:00:26;14.40;;;9.40;;
65597;SDS011;52267;51.984;20.956;2023-04-15T05:02:53;14.70;;;11.00;;
65597;SDS011;52267;51.984;20.956;2023-04-15T05:05:20;12.90;;;7.60;;
65597;SDS011;52267;51.984;20.956;2023-04-15T05:07:47;11.40;;;7.30;;
65597;SDS011;52267;51.984;20.956;2023-04-15T05:10:16;13.70;;;9.00;;
65597;SDS011;52267;51.984;20.956;2023-04-15T05:12:43;15.00;;;9.40;;
65597;SDS011;52267;51.984;20.956;2023-04-15T05:15:10;14.90;;;11.20;;
65597;SDS011;52267;51.984;20.956;2023-04-15T05:17:37;9.30;;;6.60;;
65597;SDS011;52267;51.984;20.956;2023-04-15T05:20:05;11.40;;;7.90;;
65597;SDS011;52267;51.984;20.956;2023-04-15T05:22:32;13.90;;;9.10;;
65597;SDS011;52267;51.984;20.956;2023-04-15T05:25:00;13.80;;;9.30;;
65597;SDS011;52267;51.984;20.956;2023-04-15T05:27:27;14.70;;;9.40;;
65597;SDS011;52267;51.984;20.956;2023-04-15T05:29:54;14.10;;;9.10;;
65597;SDS011;52267;51.984;20.956;2023-04-15T05:32:22;12.90;;;8.50;;
65597;SDS011;52267;51.984;20.956;2023-04-15T05:34:49;13.60;;;9.20;;
65597;SDS011;52267;51.984;20.956;2023-04-15T05:37:16;14.90;;;9.60;;
65597;SDS011;52267;51.984;20.956;2023-04-15T05:39:46;16.10;;;9.20;;
65597;SDS011;52267;51.984;20.956;2023-04-15T05:42:13;14.10;;;8.90;;
65597;SDS011;52267;51.984;20.956;2023-04-15T05:44:41;13.80;;;8.80;;
65597;SDS011;52267;51.984;20.956;2023-04-15T05:47:08;10.60;;;7.60;;
65597;SDS011;52267;51.984;20.956;2023-04-15T05:49:36;11.60;;;7.50;;
65597;SDS011;52267;51.984;20.956;2023-04-15T05:52:03;18.40;;;12.70;;
65597;SDS011;52267;51.984;20.956;2023-04-15T05:54:31;13.00;;;10.00;;
65597;SDS011;52267;51.984;20.956;2023-04-15T05:56:58;17.60;;;11.80;;
65597;SDS011;52267;51.984;20.956;2023-04-15T05:59:25;12.70;;;8.90;;
65597;SDS011;52267;51.984;20.956;2023-04-15T06:01:52;14.50;;;7.80;;
65597;SDS011;52267;51.984;20.956;2023-04-15T06:04:19;14.80;;;10.00;;
65597;SDS011;52267;51.984;20.956;2023-04-15T06:06:47;17.30;;;10.40;;
65597;SDS011;52267;51.984;20.956;2023-04-15T06:09:14;15.00;;;11.10;;
65597;SDS011;52267;51.984;20.956;2023-04-15T06:11:41;10.20;;;6.70;;
65597;SDS011;52267;51.984;20.956;2023-04-15T06:14:08;18.10;;;10.60;;
65597;SDS011;52267;51.984;20.956;2023-04-15T06:16:35;11.40;;;8.00;;
65597;SDS011;52267;51.984;20.956;2023-04-15T06:19:02;15.60;;;10.60;;
65597;SDS011;52267;51.984;20.956;2023-04-15T06:21:30;14.90;;;10.40;;
65597;SDS011;52267;51.984;20.956;2023-04-15T06:23:58;14.00;;;9.50;;
65597;SDS011;52267;51.984;20.956;2023-04-15T06:26:27;12.70;;;8.80;;
65597;SDS011;52267;51.984;20.956;2023-04-15T06:28:54;10.20;;;6.60;;
65597;SDS011;52267;51.984;20.956;2023-04-15T06:31:21;12.00;;;7.20;;
65597;SDS011;52267;51.984;20.956;2023-04-15T06:33:48;12.00;;;8.40;;
65597;SDS011;52267;51.984;20.956;2023-04-15T06:36:15;9.80;;;6.30;;
65597;SDS011;52267;51.984;20.956;2023-04-15T06:38:45;13.20;;;9.00;;
65597;SDS011;52267;51.984;20.956;2023-04-15T06:41:13;13.90;;;8.50;;
65597;SDS011;52267;51.984;20.956;2023-04-15T06:43:40;14.30;;;9.30;;
65597;SDS011;52267;51.984;20.956;2023-04-15T06:46:07;10.30;;;7.00;;
65597;SDS011;52267;51.984;20.956;2023-04-15T06:48:34;14.10;;;10.60;;
65597;SDS011;52267;51.984;20.956;2023-04-15T06:51:01;14.50;;;9.30;;
65597;SDS011;52267;51.984;20.956;2023-04-15T06:53:29;12.20;;;8.20;;
65597;SDS011;52267;51.984;20.956;2023-04-15T06:55:56;14.40;;;10.00;;
65597;SDS011;52267;51.984;20.956;2023-04-15T06:58:23;9.40;;;6.00;;
65597;SDS011;52267;51.984;20.956;2023-04-15T07:00:51;15.80;;;10.30;;
65597;SDS011;52267;51.984;20.956;2023-04-15T07:03:18;10.60;;;7.10;;
65597;SDS011;52267;51.984;20.956;2023-04-15T07:05:45;11.60;;;8.00;;
65597;SDS011;52267;51.984;20.956;2023-04-15T07:08:12;12.70;;;8.40;;
65597;SDS011;52267;51.984;20.956;2023-04-15T07:10:40;11.20;;;8.00;;
65597;SDS011;52267;51.984;20.956;2023-04-15T07:13:07;13.30;;;9.00;;
65597;SDS011;52267;51.984;20.956;2023-04-15T07:15:34;9.50;;;6.70;;
65597;SDS011;52267;51.984;20.956;2023-04-15T07:18:01;10.90;;;6.90;;
65597;SDS011;52267;51.984;20.956;2023-04-15T07:20:31;9.70;;;7.10;;
65597;SDS011;52267;51.984;20.956;2023-04-15T07:22:58;12.30;;;9.00;;
65597;SDS011;52267;51.984;20.956;2023-04-15T07:25:25;13.20;;;9.30;;
65597;SDS011;52267;51.984;20.956;2023-04-15T07:27:53;12.00;;;9.20;;
65597;SDS011;52267;51.984;20.956;2023-04-15T07:30:20;11.30;;;7.30;;
65597;SDS011;52267;51.984;20.956;2023-04-15T07:32:47;12.30;;;8.40;;
65597;SDS011;52267;51.984;20.956;2023-04-15T07:35:14;11.90;;;8.40;;
65597;SDS011;52267;51.984;20.956;2023-04-15T07:37:41;10.50;;;6.80;;
65597;SDS011;52267;51.984;20.956;2023-04-15T07:40:09;11.00;;;8.10;;
65597;SDS011;52267;51.984;20.956;2023-04-15T07:42:37;10.90;;;8.00;;
65597;SDS011;52267;51.984;20.956;2023-04-15T07:45:04;12.80;;;8.30;;
65597;SDS011;52267;51.984;20.956;2023-04-15T07:47:32;13.20;;;8.90;;
65597;SDS011;52267;51.984;20.956;2023-04-15T07:49:59;10.50;;;7.10;;
65597;SDS011;52267;51.984;20.956;2023-04-15T07:52:26;7.70;;;5.70;;
65597;SDS011;52267;51.984;20.956;2023-04-15T07:54:53;10.40;;;6.90;;
65597;SDS011;52267;51.984;20.956;2023-04-15T07:57:21;9.20;;;7.10;;
65597;SDS011;52267;51.984;20.956;2023-04-15T07:59:48;8.50;;;5.40;;
65597;SDS011;52267;51.984;20.956;2023-04-15T08:02:15;11.20;;;7.50;;
65597;SDS011;52267;51.984;20.956;2023-04-15T08:04:42;7.60;;;5.00;;
65597;SDS011;52267;51.984;20.956;2023-04-15T08:07:09;9.60;;;6.40;;
65597;SDS011;52267;51.984;20.956;2023-04-15T08:09:36;9.60;;;7.20;;
65597;SDS011;52267;51.984;20.956;2023-04-15T08:12:03;10.40;;;6.50;;
65597;SDS011;52267;51.984;20.956;2023-04-15T08:14:31;8.30;;;5.50;;
65597;SDS011;52267;51.984;20.956;2023-04-15T08:16:58;8.70;;;5.90;;
65597;SDS011;52267;51.984;20.956;2023-04-15T08:19:25;9.50;;;6.20;;
65597;SDS011;52267;51.984;20.956;2023-04-15T08:21:52;9.00;;;6.70;;
65597;SDS011;52267;51.984;20.956;2023-04-15T08:24:19;4.90;;;3.40;;
65597;SDS011;52267;51.984;20.956;2023-04-15T08:26:46;10.40;;;6.00;;
65597;SDS011;52267;51.984;20.956;2023-04-15T08:29:13;6.80;;;4.50;;
65597;SDS011;52267;51.984;20.956;2023-04-15T08:31:40;8.60;;;5.30;;
65597;SDS011;52267;51.984;20.956;2023-04-15T08:34:07;8.10;;;5.80;;
65597;SDS011;52267;51.984;20.956;2023-04-15T08:36:34;8.60;;;5.70;;
65597;SDS011;52267;51.984;20.956;2023-04-15T08:39:01;7.70;;;5.50;;
65597;SDS011;52267;51.984;20.956;2023-04-15T08:41:59;8.80;;;6.40;;
65597;SDS011;52267;51.984;20.956;2023-04-15T08:44:33;5.80;;;4.30;;
65597;SDS011;52267;51.984;20.956;2023-04-15T08:47:01;6.80;;;5.20;;
65597;SDS011;52267;51.984;20.956;2023-04-15T08:49:31;6.10;;;4.00;;
65597;SDS011;52267;51.984;20.956;2023-04-15T08:51:58;6.70;;;4.60;;
65597;SDS011;52267;51.984;20.956;2023-04-15T08:54:26;7.20;;;5.00;;
65597;SDS011;52267;51.984;20.956;2023-04-15T08:56:54;5.40;;;3.30;;
65597;SDS011;52267;51.984;20.956;2023-04-15T08:59:23;6.80;;;5.20;;
65597;SDS011;52267;51.984;20.956;2023-04-15T09:01:50;5.90;;;3.60;;
65597;SDS011;52267;51.984;20.956;2023-04-15T09:04:18;8.20;;;5.50;;
65597;SDS011;52267;51.984;20.956;2023-04-15T09:06:45;8.20;;;5.90;;
65597;SDS011;52267;51.984;20.956;2023-04-15T09:09:12;7.50;;;5.30;;
65597;SDS011;52267;51.984;20.956;2023-04-15T09:11:42;6.20;;;4.40;;
65597;SDS011;52267;51.984;20.956;2023-04-15T09:14:09;5.20;;;3.90;;
65597;SDS011;52267;51.984;20.956;2023-04-15T09:16:58;7.80;;;4.90;;
65597;SDS011;52267;51.984;20.956;2023-04-15T09:19:26;5.80;;;3.50;;
65597;SDS011;52267;51.984;20.956;2023-04-15T09:21:55;5.30;;;4.00;;
65597;SDS011;52267;51.984;20.956;2023-04-15T09:24:27;6.80;;;5.10;;
65597;SDS011;52267;51.984;20.956;2023-04-15T09:27:03;6.90;;;5.20;;
65597;SDS011;52267;51.984;20.956;2023-04-15T09:29:30;9.80;;;4.90;;
65597;SDS011;52267;51.984;20.956;2023-04-15T09:32:14;4.90;;;3.40;;
65597;SDS011;52267;51.984;20.956;2023-04-15T09:34:42;5.60;;;3.80;;
65597;SDS011;52267;51.984;20.956;2023-04-15T09:37:10;6.50;;;4.10;;
65597;SDS011;52267;51.984;20.956;2023-04-15T09:39:49;6.90;;;5.40;;
65597;SDS011;52267;51.984;20.956;2023-04-15T09:42:18;7.10;;;4.80;;
65597;SDS011;52267;51.984;20.956;2023-04-15T09:44:54;7.00;;;4.80;;
65597;SDS011;52267;51.984;20.956;2023-04-15T09:47:29;12.00;;;4.80;;
65597;SDS011;52267;51.984;20.956;2023-04-15T09:49:58;8.00;;;5.50;;
65597;SDS011;52267;51.984;20.956;2023-04-15T09:52:25;5.90;;;4.10;;
65597;SDS011;52267;51.984;20.956;2023-04-15T09:54:55;6.10;;;4.10;;
65597;SDS011;52267;51.984;20.956;2023-04-15T09:57:23;6.70;;;4.40;;
65597;SDS011;52267;51.984;20.956;2023-04-15T09:59:51;6.70;;;4.40;;
65597;SDS011;52267;51.984;20.956;2023-04-15T10:02:18;5.10;;;3.20;;
65597;SDS011;52267;51.984;20.956;2023-04-15T10:04:49;5.00;;;3.40;;
65597;SDS011;52267;51.984;20.956;2023-04-15T10:07:17;7.00;;;4.60;;
65597;SDS011;52267;51.984;20.956;2023-04-15T10:09:47;7.00;;;4.90;;
65597;SDS011;52267;51.984;20.956;2023-04-15T10:12:16;6.40;;;4.30;;
65597;SDS011;52267;51.984;20.956;2023-04-15T10:14:44;5.60;;;4.00;;
65597;SDS011;52267;51.984;20.956;2023-04-15T10:17:17;6.70;;;4.00;;
65597;SDS011;52267;51.984;20.956;2023-04-15T10:19:45;5.40;;;3.90;;
65597;SDS011;52267;51.984;20.956;2023-04-15T10:22:13;6.20;;;4.10;;
65597;SDS011;52267;51.984;20.956;2023-04-15T10:24:40;6.10;;;4.60;;
65597;SDS011;52267;51.984;20.956;2023-04-15T10:27:08;7.10;;;4.70;;
65597;SDS011;52267;51.984;20.956;2023-04-15T10:29:36;7.30;;;4.90;;
65597;SDS011;52267;51.984;20.956;2023-04-15T10:32:07;5.50;;;3.70;;
65597;SDS011;52267;51.984;20.956;2023-04-15T10:34:36;6.30;;;3.90;;
65597;SDS011;52267;51.984;20.956;2023-04-15T10:37:09;8.00;;;4.70;;
65597;SDS011;52267;51.984;20.956;2023-04-15T10:39:40;6.10;;;4.50;;
65597;SDS011;52267;51.984;20.956;2023-04-15T10:42:12;5.90;;;4.20;;
65597;SDS011;52267;51.984;20.956;2023-04-15T10:44:44;6.60;;;4.50;;
65597;SDS011;52267;51.984;20.956;2023-04-15T10:47:18;5.20;;;3.10;;
65597;SDS011;52267;51.984;20.956;2023-04-15T10:49:56;7.00;;;4.80;;
65597;SDS011;52267;51.984;20.956;2023-04-15T10:52:26;6.50;;;5.10;;
65597;SDS011;52267;51.984;20.956;2023-04-15T10:55:22;6.30;;;4.80;;
65597;SDS011;52267;51.984;20.956;2023-04-15T10:57:55;7.50;;;5.60;;
65597;SDS011;52267;51.984;20.956;2023-04-15T11:00:27;7.70;;;5.10;;
65597;SDS011;52267;51.984;20.956;2023-04-15T11:03:14;7.40;;;5.60;;
65597;SDS011;52267;51.984;20.956;2023-04-15T11:08:09;7.90;;;5.10;;
65597;SDS011;52267;51.984;20.956;2023-04-15T11:13:23;5.20;;;3.70;;
65597;SDS011;52267;51.984;20.956;2023-04-15T11:15:55;7.00;;;4.70;;
65597;SDS011;52267;51.984;20.956;2023-04-15T11:18:25;6.90;;;4.00;;
65597;SDS011;52267;51.984;20.956;2023-04-15T11:20:59;5.10;;;3.10;;
65597;SDS011;52267;51.984;20.956;2023-04-15T11:23:39;5.40;;;3.70;;
65597;SDS011;52267;51.984;20.956;2023-04-15T11:26:12;6.30;;;3.70;;
65597;SDS011;52267;51.984;20.956;2023-04-15T11:28:44;6.10;;;3.20;;
65597;SDS011;52267;51.984;20.956;2023-04-15T11:31:16;5.60;;;3.10;;
65597;SDS011;52267;51.984;20.956;2023-04-15T11:34:03;4.80;;;2.80;;
65597;SDS011;52267;51.984;20.956;2023-04-15T11:36:31;4.60;;;3.20;;
65597;SDS011;52267;51.984;20.956;2023-04-15T11:38:59;5.80;;;3.20;;
65597;SDS011;52267;51.984;20.956;2023-04-15T11:41:27;5.10;;;3.10;;
65597;SDS011;52267;51.984;20.956;2023-04-15T11:43:54;5.30;;;3.50;;
65597;SDS011;52267;51.984;20.956;2023-04-15T11:46:28;5.70;;;4.10;;
65597;SDS011;52267;51.984;20.956;2023-04-15T11:48:56;5.30;;;3.10;;
65597;SDS011;52267;51.984;20.956;2023-04-15T11:51:23;5.40;;;2.40;;
65597;SDS011;52267;51.984;20.956;2023-04-15T11:53:50;4.20;;;2.50;;
65597;SDS011;52267;51.984;20.956;2023-04-15T11:56:25;5.30;;;3.20;;
65597;SDS011;52267;51.984;20.956;2023-04-15T11:58:57;2.80;;;1.70;;
65597;SDS011;52267;51.984;20.956;2023-04-15T12:01:35;4.30;;;3.50;;
65597;SDS011;52267;51.984;20.956;2023-04-15T12:04:16;5.40;;;3.50;;
65597;SDS011;52267;51.984;20.956;2023-04-15T12:06:48;3.80;;;2.30;;
65597;SDS011;52267;51.984;20.956;2023-04-15T12:09:15;4.10;;;2.40;;
65597;SDS011;52267;51.984;20.956;2023-04-15T12:11:50;4.90;;;2.80;;
65597;SDS011;52267;51.984;20.956;2023-04-15T12:14:24;2.30;;;1.50;;
65597;SDS011;52267;51.984;20.956;2023-04-15T12:17:01;6.10;;;2.10;;
65597;SDS011;52267;51.984;20.956;2023-04-15T12:19:30;3.50;;;1.80;;
65597;SDS011;52267;51.984;20.956;2023-04-15T12:22:09;2.80;;;1.70;;
65597;SDS011;52267;51.984;20.956;2023-04-15T12:24:39;3.70;;;1.80;;
65597;SDS011;52267;51.984;20.956;2023-04-15T12:27:11;3.40;;;1.80;;
65597;SDS011;52267;51.984;20.956;2023-04-15T12:32:10;2.80;;;1.60;;
65597;SDS011;52267;51.984;20.956;2023-04-15T12:34:43;4.70;;;1.90;;
65597;SDS011;52267;51.984;20.956;2023-04-15T12:37:16;2.60;;;1.50;;
65597;SDS011;52267;51.984;20.956;2023-04-15T12:39:45;2.90;;;1.60;;
65597;SDS011;52267;51.984;20.956;2023-04-15T12:42:15;5.20;;;1.80;;
65597;SDS011;52267;51.984;20.956;2023-04-15T12:44:42;5.00;;;2.20;;
65597;SDS011;52267;51.984;20.956;2023-04-15T12:47:10;4.10;;;2.30;;
65597;SDS011;52267;51.984;20.956;2023-04-15T12:49:38;3.00;;;1.80;;
65597;SDS011;52267;51.984;20.956;2023-04-15T12:52:05;3.00;;;1.70;;
65597;SDS011;52267;51.984;20.956;2023-04-15T12:54:32;3.60;;;2.10;;
65597;SDS011;52267;51.984;20.956;2023-04-15T12:57:00;3.00;;;1.70;;
65597;SDS011;52267;51.984;20.956;2023-04-15T12:59:28;2.80;;;1.40;;
65597;SDS011;52267;51.984;20.956;2023-04-15T13:01:55;2.50;;;1.50;;
65597;SDS011;52267;51.984;20.956;2023-04-15T13:04:23;2.40;;;1.40;;
65597;SDS011;52267;51.984;20.956;2023-04-15T13:06:50;3.60;;;1.80;;
65597;SDS011;52267;51.984;20.956;2023-04-15T13:09:17;4.50;;;2.20;;
65597;SDS011;52267;51.984;20.956;2023-04-15T13:11:44;3.80;;;2.10;;
65597;SDS011;52267;51.984;20.956;2023-04-15T13:14:11;3.90;;;1.90;;
65597;SDS011;52267;51.984;20.956;2023-04-15T13:16:39;3.30;;;2.10;;
65597;SDS011;52267;51.984;20.956;2023-04-15T13:19:06;3.70;;;2.60;;
65597;SDS011;52267;51.984;20.956;2023-04-15T13:21:33;3.80;;;2.00;;
65597;SDS011;52267;51.984;20.956;2023-04-15T13:24:01;4.10;;;2.60;;
65597;SDS011;52267;51.984;20.956;2023-04-15T13:26:28;4.80;;;2.70;;
65597;SDS011;52267;51.984;20.956;2023-04-15T13:28:55;3.80;;;2.00;;
65597;SDS011;52267;51.984;20.956;2023-04-15T13:31:22;4.00;;;2.20;;
65597;SDS011;52267;51.984;20.956;2023-04-15T13:33:49;5.20;;;2.70;;
65597;SDS011;52267;51.984;20.956;2023-04-15T13:36:16;5.20;;;2.90;;
65597;SDS011;52267;51.984;20.956;2023-04-15T13:38:43;4.30;;;2.50;;
65597;SDS011;52267;51.984;20.956;2023-04-15T13:41:10;4.10;;;2.20;;
65597;SDS011;52267;51.984;20.956;2023-04-15T13:43:37;2.60;;;1.80;;
65597;SDS011;52267;51.984;20.956;2023-04-15T13:46:04;4.00;;;2.50;;
65597;SDS011;52267;51.984;20.956;2023-04-15T13:48:32;5.30;;;2.20;;
65597;SDS011;52267;51.984;20.956;2023-04-15T13:50:59;3.30;;;1.80;;
65597;SDS011;52267;51.984;20.956;2023-04-15T13:53:26;2.90;;;1.90;;
65597;SDS011;52267;51.984;20.956;2023-04-15T13:55:55;3.70;;;1.80;;
65597;SDS011;52267;51.984;20.956;2023-04-15T13:58:22;3.50;;;1.90;;
65597;SDS011;52267;51.984;20.956;2023-04-15T14:00:49;3.30;;;1.80;;
65597;SDS011;52267;51.984;20.956;2023-04-15T14:03:16;4.10;;;1.80;;
65597;SDS011;52267;51.984;20.956;2023-04-15T14:05:44;3.60;;;1.80;;
65597;SDS011;52267;51.984;20.956;2023-04-15T14:08:11;5.80;;;2.50;;
65597;SDS011;52267;51.984;20.956;2023-04-15T14:10:38;3.00;;;1.50;;
65597;SDS011;52267;51.984;20.956;2023-04-15T14:13:05;4.80;;;2.80;;
65597;SDS011;52267;51.984;20.956;2023-04-15T14:15:32;3.50;;;2.30;;
65597;SDS011;52267;51.984;20.956;2023-04-15T14:17:59;3.10;;;2.00;;
65597;SDS011;52267;51.984;20.956;2023-04-15T14:20:28;3.30;;;2.00;;
65597;SDS011;52267;51.984;20.956;2023-04-15T14:22:55;3.70;;;1.60;;
65597;SDS011;52267;51.984;20.956;2023-04-15T14:25:22;3.70;;;2.00;;
65597;SDS011;52267;51.984;20.956;2023-04-15T14:27:49;4.90;;;2.10;;
65597;SDS011;52267;51.984;20.956;2023-04-15T14:30:16;4.10;;;2.10;;
65597;SDS011;52267;51.984;20.956;2023-04-15T14:32:43;3.20;;;1.90;;
65597;SDS011;52267;51.984;20.956;2023-04-15T14:35:10;5.10;;;2.40;;
65597;SDS011;52267;51.984;20.956;2023-04-15T14:37:37;4.60;;;2.40;;
65597;SDS011;52267;51.984;20.956;2023-04-15T14:40:05;3.40;;;2.00;;